Current Weather

Arlington Muni

Arlington, Washington (KAWO)

Report from: Saturday, July 13, 2024 6:56 PM PDT
Current time: Saturday, July 13, 2024 7:19 PM PDT

Nearby weather – Weather history – Daily summaries
Weather forecast

Temperature26.7°C (80.1°F)
Heat index27.2°C (80.9°F)
Dew point13.9°C (57.0°F)
Winds 10 kts (5.1 m/s, 11.5 mph) West-Northwest (300°)
Visibility10 mi. (16.1 km)
Clouds Sky clear
Altimeter29.96 in.Hg (1015 mB)
Relative humidity45 %
Density altitude1,519 ft. (463 m)
Sea-level pressure101.5 kPa (1015 mB, 29.97 in.Hg)
Remarks Fully automated report
Automated weather observing station with precipitation discriminator
Flight conditions Visual Meteorological Conditions
Raw dataKAWO 140156Z AUTO 30010KT 10SM CLR 27/14 A2996 RMK AO2 SLP148 T02670139
An error has occurred. This application may no longer respond until reloaded. Reload 🗙